Accueil
METAR-TAF:

METAR-TAF

Aéroports :

Bückeburg, Allemagne

latitude: 52-17N, longitude: 009-05E, altitude: 70 m

Observation

Le bulletin a été fait il y a 15 minutes, à 12:20 UTC
Vent 7 kt de est
Température 3°C
Humidité 81%
Pression 1020 hPa
Visibilité: 9000 m
Nuages fragmentés à une hauteur de 1100 ft

METAR: ETHB 211220Z 10007KT 9000 BKN011 03/00 Q1020 GRN GRN TEMPO WHT

Heure: 13:35 (12:35 UTC)

Prévision

Le bulletin a été fait il y a 1 heure et 35 minutes, à 11:00 UTC
Prévision valable du 21 à 12 UTC au 21 à 20 UTC
Vent 7 kt de est
Visibilité: 6000 m
Nuages fragmentés à une hauteur de 1200 ft
Temporairement
du 21 à 12 UTC au 21 à 18 UTC
Vent 10 kt de est
Visibilité: 8000 m
Quelques nuages à une hauteur de 1200 ft
Nuages fragmentés à une hauteur de 2000 ft

TAF: ETHB 211100Z 2112/2120 10007KT 6000 NSW BKN012 TEMPO 2112/2118 09010KT 8000 NSW FEW012 BKN020

Observations et prévisions météorologiques de plus de 4000 aéroports (messages METAR et TAF).

Les stations disponibles sont représentées par des disques jaunes et rouges sur la carte.

Passer la souris dessus pour voir le nom de la station.

Cliquer dessus pour voir les observations et prévisions météorologiques.

Pour changer de carte: cliquez sur les boutons verts avec une croix noire pour zoomer, sur le bouton vert avec un tiret pour effectuer un zoom arrière, ou sur les flèches vertes pour les cartes adjacentes.


METAR-TAF: